createdAt,value
2022-10-01T00:01:15.731Z,16.08
2022-10-01T00:03:44.913Z,16.07
2022-10-01T00:06:14.723Z,16.06
2022-10-01T00:08:42.377Z,16.04
2022-10-01T00:11:11.977Z,16.01
2022-10-01T00:13:43.775Z,15.97
2022-10-01T00:16:13.702Z,15.93
2022-10-01T00:18:42.702Z,15.91
2022-10-01T00:21:14.842Z,15.90
2022-10-01T00:23:46.151Z,15.90
2022-10-01T00:26:18.198Z,15.89
2022-10-01T00:28:47.598Z,15.91
2022-10-01T00:31:15.903Z,15.92
2022-10-01T00:33:47.090Z,15.90
2022-10-01T00:36:13.678Z,15.89
2022-10-01T00:38:40.761Z,15.88
2022-10-01T00:41:08.069Z,15.88
2022-10-01T00:43:59.866Z,15.87
2022-10-01T00:46:41.075Z,15.85
2022-10-01T00:49:15.071Z,15.83
2022-10-01T00:51:45.565Z,15.85
2022-10-01T00:54:16.944Z,15.85
2022-10-01T00:56:44.724Z,15.85
2022-10-01T00:59:12.807Z,15.86
2022-10-01T01:01:39.451Z,15.87
2022-10-01T01:04:16.821Z,15.88
2022-10-01T01:06:55.760Z,15.88
2022-10-01T01:09:25.808Z,15.87
2022-10-01T01:12:07.801Z,15.87
2022-10-01T01:15:01.700Z,15.87
2022-10-01T01:17:40.377Z,15.85
2022-10-01T01:20:19.084Z,15.82
2022-10-01T01:22:59.723Z,15.77
2022-10-01T01:25:36.769Z,15.76
2022-10-01T01:28:20.009Z,15.76
2022-10-01T01:30:50.651Z,15.77
2022-10-01T01:33:20.705Z,15.77
2022-10-01T01:35:53.023Z,15.78
2022-10-01T01:38:27.951Z,15.76
2022-10-01T01:40:58.521Z,15.73
2022-10-01T01:43:31.327Z,15.69
2022-10-01T01:46:01.228Z,15.68
2022-10-01T01:48:30.791Z,15.66
2022-10-01T01:51:11.782Z,15.67
2022-10-01T01:53:43.028Z,15.66
2022-10-01T01:56:09.700Z,15.65
2022-10-01T01:58:37.867Z,15.65
2022-10-01T02:01:05.098Z,15.67
2022-10-01T02:03:35.009Z,15.69
2022-10-01T02:06:19.171Z,15.73
2022-10-01T02:09:11.335Z,15.72
2022-10-01T02:11:50.428Z,15.70
2022-10-01T02:14:30.905Z,15.68
2022-10-01T02:17:06.055Z,15.69
2022-10-01T02:19:48.813Z,15.70
2022-10-01T02:22:23.707Z,15.70
2022-10-01T02:24:59.879Z,15.70
2022-10-01T02:27:33.251Z,15.68
2022-10-01T02:30:07.797Z,15.67
2022-10-01T02:32:37.819Z,15.65
2022-10-01T02:35:09.569Z,15.63
2022-10-01T02:37:37.687Z,15.63
2022-10-01T02:40:08.690Z,15.62
2022-10-01T02:42:37.728Z,15.62
2022-10-01T02:45:10.159Z,15.62
2022-10-01T02:47:41.694Z,15.61
2022-10-01T02:50:09.421Z,15.62
2022-10-01T02:52:45.356Z,15.61
2022-10-01T02:55:17.346Z,15.60
2022-10-01T02:57:43.922Z,15.62
2022-10-01T03:00:13.561Z,15.63
2022-10-01T03:02:40.130Z,15.65
2022-10-01T03:05:07.318Z,15.65
2022-10-01T03:07:35.651Z,15.65
2022-10-01T03:10:04.691Z,15.68
2022-10-01T03:12:31.660Z,15.69
2022-10-01T03:14:58.164Z,15.69
2022-10-01T03:17:24.705Z,15.70
2022-10-01T03:19:51.232Z,15.71
2022-10-01T03:22:22.311Z,15.72
2022-10-01T03:24:51.726Z,15.72
2022-10-01T03:27:19.119Z,15.73
2022-10-01T03:29:46.158Z,15.75
2022-10-01T03:32:13.024Z,15.75
2022-10-01T03:34:40.559Z,15.77
2022-10-01T03:37:07.257Z,15.78
2022-10-01T03:39:34.236Z,15.79
2022-10-01T03:42:00.709Z,15.81
2022-10-01T03:44:30.083Z,15.83
2022-10-01T03:46:56.558Z,15.83
2022-10-01T03:49:23.599Z,15.82
2022-10-01T03:51:50.498Z,15.83
2022-10-01T03:54:18.396Z,15.84
2022-10-01T03:56:44.919Z,15.82
2022-10-01T03:59:11.410Z,15.83
2022-10-01T04:01:39.376Z,15.85
2022-10-01T04:04:07.162Z,15.84
2022-10-01T04:06:33.718Z,15.85
2022-10-01T04:09:00.212Z,15.87
2022-10-01T04:11:26.842Z,15.92
2022-10-01T04:13:54.148Z,15.96
2022-10-01T04:16:20.720Z,15.98
2022-10-01T04:18:47.253Z,16.02
2022-10-01T04:21:15.330Z,16.02
2022-10-01T04:23:46.337Z,16.02
2022-10-01T04:26:12.918Z,16.03
2022-10-01T04:28:39.419Z,16.05
2022-10-01T04:31:24.620Z,16.06
2022-10-01T04:33:56.255Z,16.09
2022-10-01T04:36:24.490Z,16.10
2022-10-01T04:38:53.358Z,16.11
2022-10-01T04:41:21.323Z,16.14
2022-10-01T04:43:50.989Z,16.17
2022-10-01T04:46:17.884Z,16.18
2022-10-01T04:48:44.454Z,16.19
2022-10-01T04:51:11.089Z,16.21
2022-10-01T04:53:55.518Z,16.23
2022-10-01T04:56:22.131Z,16.27
2022-10-01T04:58:49.106Z,16.28
2022-10-01T05:01:15.626Z,16.30
2022-10-01T05:03:44.245Z,16.33
2022-10-01T05:06:10.766Z,16.32
2022-10-01T05:08:37.960Z,16.32
2022-10-01T05:11:04.813Z,16.33
2022-10-01T05:13:31.865Z,16.35
2022-10-01T05:16:02.993Z,16.34
2022-10-01T05:18:30.155Z,16.36
2022-10-01T05:20:56.655Z,16.38
2022-10-01T05:23:23.125Z,16.39
2022-10-01T05:25:51.109Z,16.41
2022-10-01T05:28:22.215Z,16.43
2022-10-01T05:30:50.960Z,16.47
2022-10-01T05:33:17.497Z,16.49
2022-10-01T05:35:45.494Z,16.51
2022-10-01T05:38:12.012Z,16.52
2022-10-01T05:40:38.502Z,16.55
2022-10-01T05:43:04.975Z,16.59
2022-10-01T05:45:32.363Z,16.59
2022-10-01T05:48:01.326Z,16.60
2022-10-01T05:50:31.389Z,16.61
2022-10-01T05:52:58.193Z,16.63
2022-10-01T05:55:25.083Z,16.65
2022-10-01T05:58:02.341Z,16.65
2022-10-01T06:00:30.867Z,16.66
2022-10-01T06:03:00.788Z,16.70
2022-10-01T06:05:29.471Z,16.75
2022-10-01T06:07:56.461Z,16.76
2022-10-01T06:10:24.538Z,16.79
2022-10-01T06:12:51.628Z,16.81
2022-10-01T06:15:21.961Z,16.84
2022-10-01T06:17:48.428Z,16.86
2022-10-01T06:20:19.388Z,16.88
2022-10-01T06:22:53.902Z,16.90
2022-10-01T06:25:21.949Z,16.90
2022-10-01T06:27:57.807Z,16.93
2022-10-01T06:30:27.195Z,16.95
2022-10-01T06:33:03.864Z,16.97
2022-10-01T06:35:34.838Z,17.00
2022-10-01T06:38:04.746Z,17.04
2022-10-01T06:40:31.345Z,17.05
2022-10-01T06:42:58.683Z,17.05
2022-10-01T06:45:29.658Z,17.09
2022-10-01T06:48:03.601Z,17.10
2022-10-01T06:50:31.530Z,17.12
2022-10-01T06:52:58.886Z,17.18
2022-10-01T06:55:30.047Z,17.21
2022-10-01T06:58:05.457Z,17.24
2022-10-01T07:00:32.916Z,17.26
2022-10-01T07:02:59.572Z,17.32
2022-10-01T07:05:27.910Z,17.39
2022-10-01T07:07:54.537Z,17.43
2022-10-01T07:10:23.136Z,17.46
2022-10-01T07:12:50.445Z,17.51
2022-10-01T07:15:21.112Z,17.53
2022-10-01T07:17:50.214Z,17.56
2022-10-01T07:20:19.782Z,17.58
2022-10-01T07:22:48.724Z,17.61
2022-10-01T07:25:15.621Z,17.64
2022-10-01T07:27:42.114Z,17.69
2022-10-01T07:30:09.122Z,17.73
2022-10-01T07:32:35.590Z,17.83
2022-10-01T07:35:03.575Z,17.94
2022-10-01T07:37:30.077Z,18.03
2022-10-01T07:39:56.534Z,18.10
2022-10-01T07:42:22.998Z,18.16
2022-10-01T07:44:51.029Z,18.24
2022-10-01T07:47:17.487Z,18.31
2022-10-01T07:49:43.955Z,18.38
2022-10-01T07:52:13.285Z,18.46
2022-10-01T07:54:40.260Z,18.52
2022-10-01T07:57:06.701Z,18.57
2022-10-01T07:59:33.447Z,18.61
2022-10-01T08:02:00.910Z,18.64
2022-10-01T08:04:46.081Z,18.64
2022-10-01T08:07:12.555Z,18.63
2022-10-01T08:09:39.760Z,18.62
2022-10-01T08:12:06.277Z,18.62
2022-10-01T08:14:34.932Z,18.59
2022-10-01T08:17:01.463Z,18.57
2022-10-01T08:19:28.066Z,18.56
2022-10-01T08:21:54.521Z,18.56
2022-10-01T08:24:25.386Z,18.55
2022-10-01T08:26:55.878Z,18.57
2022-10-01T08:29:22.437Z,18.59
2022-10-01T08:31:49.107Z,18.63
2022-10-01T08:34:20.209Z,18.68
2022-10-01T08:36:51.656Z,18.73
2022-10-01T08:39:18.538Z,18.78
2022-10-01T08:41:54.041Z,18.79
2022-10-01T08:44:27.792Z,18.79
2022-10-01T08:47:00.844Z,18.78
2022-10-01T08:49:34.407Z,18.76
2022-10-01T08:52:15.632Z,18.72
2022-10-01T08:54:48.221Z,18.71
2022-10-01T08:57:38.352Z,18.72
2022-10-01T09:00:11.692Z,18.71
2022-10-01T09:02:40.664Z,18.75
2022-10-01T09:05:25.328Z,18.79
2022-10-01T09:08:06.815Z,18.88
2022-10-01T09:10:49.797Z,18.95
2022-10-01T09:14:00.655Z,19.05
2022-10-01T09:16:36.320Z,19.19
2022-10-01T09:19:31.828Z,19.32
2022-10-01T09:21:58.296Z,19.48
2022-10-01T09:24:50.022Z,19.64
2022-10-01T09:27:21.470Z,19.78
2022-10-01T09:30:07.457Z,19.91
2022-10-01T09:32:46.832Z,20.07
2022-10-01T09:35:23.854Z,20.20
2022-10-01T09:38:02.204Z,20.30
2022-10-01T09:40:46.284Z,20.44
2022-10-01T09:43:12.998Z,20.55
2022-10-01T09:45:41.003Z,20.58
2022-10-01T09:48:26.435Z,20.60
2022-10-01T09:50:59.051Z,20.66
2022-10-01T09:56:42.477Z,20.72
2022-10-01T09:59:17.305Z,20.71
2022-10-01T10:01:51.820Z,20.73
2022-10-01T10:04:23.279Z,20.72
2022-10-01T10:07:01.393Z,20.72
2022-10-01T10:09:33.622Z,20.73
2022-10-01T10:12:00.902Z,20.73
2022-10-01T10:14:35.122Z,20.72
2022-10-01T10:17:11.141Z,20.73
2022-10-01T10:19:38.397Z,20.73
2022-10-01T10:22:23.183Z,20.71
2022-10-01T10:24:50.344Z,20.70
2022-10-01T10:27:26.587Z,20.68
2022-10-01T10:30:13.628Z,20.63
2022-10-01T10:32:41.577Z,20.56
2022-10-01T10:35:14.135Z,20.46
2022-10-01T10:37:54.725Z,20.38
2022-10-01T10:40:29.330Z,20.37
2022-10-01T10:42:58.606Z,20.43
2022-10-01T10:45:33.233Z,20.55
2022-10-01T10:48:01.878Z,20.68
2022-10-01T10:50:32.387Z,20.84
2022-10-01T10:52:59.252Z,20.97
2022-10-01T10:55:30.967Z,21.07
2022-10-01T10:58:11.667Z,21.21
2022-10-01T11:00:46.263Z,21.37
2022-10-01T11:03:15.613Z,21.48
2022-10-01T11:05:43.502Z,21.56
2022-10-01T11:08:18.931Z,21.64
2022-10-01T11:11:02.169Z,21.69
2022-10-01T11:13:43.773Z,21.69
2022-10-01T11:16:19.016Z,21.74
2022-10-01T11:18:45.442Z,21.84
2022-10-01T11:21:42.062Z,21.94
2022-10-01T11:24:33.138Z,21.95
2022-10-01T11:27:40.990Z,21.92
2022-10-01T11:30:15.357Z,21.93
2022-10-01T11:32:47.875Z,21.97
2022-10-01T11:35:40.043Z,22.01
2022-10-01T11:38:18.893Z,22.05
2022-10-01T11:41:01.070Z,22.07
2022-10-01T11:46:38.504Z,22.22
2022-10-01T11:49:14.581Z,22.30
2022-10-01T11:51:49.746Z,22.40
2022-10-01T11:54:23.866Z,22.54
2022-10-01T11:57:13.874Z,22.71
2022-10-01T11:59:56.185Z,22.85
2022-10-01T12:02:33.315Z,22.93
2022-10-01T12:05:22.932Z,22.91
2022-10-01T12:08:18.859Z,22.88
2022-10-01T12:10:59.163Z,22.90
2022-10-01T12:13:32.936Z,22.88
2022-10-01T12:16:18.695Z,22.80
2022-10-01T12:18:54.403Z,22.70
2022-10-01T12:21:29.806Z,22.50
2022-10-01T12:24:05.582Z,22.28
2022-10-01T12:26:32.362Z,22.06
2022-10-01T12:29:06.758Z,21.85
2022-10-01T12:31:53.789Z,21.67
2022-10-01T12:34:38.715Z,21.50
2022-10-01T12:37:33.184Z,21.35
2022-10-01T12:40:18.715Z,21.32
2022-10-01T12:42:54.241Z,21.29
2022-10-01T12:46:06.572Z,21.18
2022-10-01T12:49:08.683Z,21.03
2022-10-01T12:51:52.444Z,20.92
2022-10-01T12:54:41.778Z,20.88
2022-10-01T12:57:36.809Z,20.94
2022-10-01T13:00:13.382Z,21.06
2022-10-01T13:02:53.366Z,21.19
2022-10-01T13:05:43.498Z,21.36
2022-10-01T13:08:16.103Z,21.53
2022-10-01T13:11:20.636Z,21.67
2022-10-01T13:13:53.851Z,21.85
2022-10-01T13:16:48.113Z,21.94
2022-10-01T13:19:48.105Z,22.07
2022-10-01T13:22:28.366Z,22.20
2022-10-01T13:25:18.841Z,22.34
2022-10-01T13:28:16.856Z,22.50
2022-10-01T13:31:14.879Z,22.67
2022-10-01T13:34:01.727Z,22.70
2022-10-01T13:36:30.637Z,22.70
2022-10-01T13:38:57.394Z,22.69
2022-10-01T13:41:29.054Z,22.59
2022-10-01T13:44:21.897Z,22.46
2022-10-01T13:46:55.882Z,22.30
2022-10-01T13:49:26.830Z,22.17
2022-10-01T13:51:54.650Z,22.08
2022-10-01T13:54:29.581Z,22.09
2022-10-01T13:57:07.717Z,22.12
2022-10-01T13:59:36.278Z,22.18
2022-10-01T14:02:03.993Z,22.22
2022-10-01T14:04:43.664Z,22.29
2022-10-01T14:07:26.545Z,22.37
2022-10-01T14:09:57.859Z,22.41
2022-10-01T14:12:49.498Z,22.39
2022-10-01T14:15:42.823Z,22.29
2022-10-01T14:18:20.851Z,22.16
2022-10-01T14:21:12.321Z,22.06
2022-10-01T14:24:03.216Z,22.02
2022-10-01T14:26:53.930Z,21.95
2022-10-01T14:29:45.231Z,21.98
2022-10-01T14:32:33.406Z,22.00
2022-10-01T14:35:30.393Z,21.98
2022-10-01T14:38:03.190Z,22.03
2022-10-01T14:40:41.386Z,22.04
2022-10-01T14:43:46.191Z,22.04
2022-10-01T14:46:16.527Z,22.08
2022-10-01T14:48:44.210Z,22.09
2022-10-01T14:51:26.931Z,22.10
2022-10-01T14:53:58.737Z,22.12
2022-10-01T14:56:27.026Z,22.09
2022-10-01T14:59:02.663Z,22.04
2022-10-01T15:01:29.264Z,21.97
2022-10-01T15:03:57.769Z,21.91
2022-10-01T15:06:30.308Z,21.83
2022-10-01T15:09:14.892Z,21.78
2022-10-01T15:11:44.671Z,21.76
2022-10-01T15:14:18.813Z,21.69
2022-10-01T15:16:46.259Z,21.65
2022-10-01T15:19:19.858Z,21.59
2022-10-01T15:21:53.412Z,21.54
2022-10-01T15:24:31.840Z,21.50
2022-10-01T15:26:58.814Z,21.49
2022-10-01T15:29:25.406Z,21.43
2022-10-01T15:31:53.612Z,21.37
2022-10-01T15:34:23.900Z,21.32
2022-10-01T15:36:51.266Z,21.26
2022-10-01T15:39:38.361Z,21.20
2022-10-01T15:42:31.853Z,21.11
2022-10-01T15:45:26.042Z,21.06
2022-10-01T15:47:57.296Z,21.03
2022-10-01T15:50:32.630Z,20.97
2022-10-01T15:53:06.149Z,20.93
2022-10-01T15:55:49.420Z,20.90
2022-10-01T15:58:19.911Z,20.87
2022-10-01T16:01:13.694Z,20.80
2022-10-01T16:03:50.446Z,20.74
2022-10-01T16:06:24.273Z,20.67
2022-10-01T16:09:15.876Z,20.61
2022-10-01T16:12:18.601Z,20.55
2022-10-01T16:15:26.559Z,20.50
2022-10-01T16:18:02.433Z,20.49
2022-10-01T16:20:56.340Z,20.43
2022-10-01T16:23:50.086Z,20.40
2022-10-01T16:26:32.373Z,20.33
2022-10-01T16:29:14.603Z,20.28
2022-10-01T16:31:45.247Z,20.23
2022-10-01T16:34:18.618Z,20.18
2022-10-01T16:36:46.354Z,20.12
2022-10-01T16:39:14.989Z,20.09
2022-10-01T16:41:56.595Z,20.07
2022-10-01T16:44:38.632Z,20.04
2022-10-01T16:47:05.245Z,20.01
2022-10-01T16:49:31.780Z,19.97
2022-10-01T16:51:58.239Z,19.93
2022-10-01T16:54:26.769Z,19.89
2022-10-01T16:56:55.130Z,19.87
2022-10-01T16:59:23.202Z,19.83
2022-10-01T17:01:53.528Z,19.78
2022-10-01T17:04:21.115Z,19.74
2022-10-01T17:06:48.138Z,19.70
2022-10-01T17:09:14.616Z,19.67
2022-10-01T17:11:42.204Z,19.65
2022-10-01T17:14:16.702Z,19.63
2022-10-01T17:16:43.887Z,19.60
2022-10-01T17:19:10.782Z,19.57
2022-10-01T17:21:39.905Z,19.53
2022-10-01T17:24:32.832Z,19.45
2022-10-01T17:26:59.315Z,19.43
2022-10-01T17:29:26.678Z,19.40
2022-10-01T17:31:53.631Z,19.35
2022-10-01T17:34:22.027Z,19.31
2022-10-01T17:36:48.562Z,19.29
2022-10-01T17:39:15.071Z,19.25
2022-10-01T17:41:41.538Z,19.20
2022-10-01T17:44:09.710Z,19.15
2022-10-01T17:46:36.551Z,19.12
2022-10-01T17:49:03.418Z,19.08
2022-10-01T17:51:29.962Z,19.00
2022-10-01T17:53:57.565Z,18.91
2022-10-01T17:56:24.113Z,18.82
2022-10-01T17:58:53.137Z,18.76
2022-10-01T18:01:21.927Z,18.68
2022-10-01T18:03:56.123Z,18.60
2022-10-01T18:06:24.041Z,18.52
2022-10-01T18:08:55.504Z,18.45
2022-10-01T18:11:25.073Z,18.40
2022-10-01T18:13:53.536Z,18.34
2022-10-01T18:16:20.705Z,18.28
2022-10-01T18:19:51.883Z,18.24
2022-10-01T18:21:34.347Z,18.20
2022-10-01T18:24:04.750Z,18.14
2022-10-01T18:26:32.280Z,18.12
2022-10-01T18:28:59.023Z,18.09
2022-10-01T18:31:27.542Z,18.05
2022-10-01T18:33:59.533Z,18.02
2022-10-01T18:36:32.124Z,17.98
2022-10-01T18:39:28.022Z,17.93
2022-10-01T18:41:54.529Z,17.89
2022-10-01T18:44:22.890Z,17.84
2022-10-01T18:46:54.838Z,17.80
2022-10-01T18:49:43.205Z,17.77
2022-10-01T18:52:37.932Z,17.75
2022-10-01T18:55:25.265Z,17.73
2022-10-01T18:58:18.185Z,17.73
2022-10-01T19:01:20.871Z,17.75
2022-10-01T19:04:14.383Z,17.77
2022-10-01T19:06:46.090Z,17.79
2022-10-01T19:09:32.803Z,17.79
2022-10-01T19:12:33.038Z,17.81
2022-10-01T19:15:07.121Z,17.83
2022-10-01T19:17:50.117Z,17.83
2022-10-01T19:20:46.235Z,17.82
2022-10-01T19:23:12.785Z,17.79
2022-10-01T19:25:57.207Z,17.79
2022-10-01T19:28:29.716Z,17.75
2022-10-01T19:31:01.246Z,17.72
2022-10-01T19:33:33.363Z,17.69
2022-10-01T19:36:01.573Z,17.66
2022-10-01T19:38:40.005Z,17.67
2022-10-01T19:41:20.433Z,17.65
2022-10-01T19:44:04.286Z,17.62
2022-10-01T19:46:40.798Z,17.60
2022-10-01T19:49:08.499Z,17.57
2022-10-01T19:51:39.607Z,17.52
2022-10-01T19:54:16.933Z,17.52
2022-10-01T19:56:48.534Z,17.52
2022-10-01T19:59:19.764Z,17.53
2022-10-01T20:02:03.565Z,17.57
2022-10-01T20:04:40.264Z,17.62
2022-10-01T20:07:30.034Z,17.66
2022-10-01T20:10:05.759Z,17.69
2022-10-01T20:12:46.954Z,17.72
2022-10-01T20:15:30.539Z,17.71
2022-10-01T20:18:33.980Z,17.73
2022-10-01T20:21:06.052Z,17.75
2022-10-01T20:24:07.517Z,17.71
2022-10-01T20:27:02.714Z,17.72
2022-10-01T20:29:38.298Z,17.71
2022-10-01T20:32:10.726Z,17.71
2022-10-01T20:35:03.870Z,17.71
2022-10-01T20:37:48.485Z,17.71
2022-10-01T20:40:27.775Z,17.73
2022-10-01T20:43:09.858Z,17.73
2022-10-01T20:45:39.229Z,17.76
2022-10-01T20:48:17.777Z,17.75
2022-10-01T20:50:47.402Z,17.74
2022-10-01T20:53:22.133Z,17.72
2022-10-01T20:56:01.657Z,17.73
2022-10-01T20:58:44.491Z,17.70
2022-10-01T21:01:32.661Z,17.69
2022-10-01T21:04:06.459Z,17.67
2022-10-01T21:06:42.119Z,17.66
2022-10-01T21:09:35.354Z,17.63
2022-10-01T21:12:07.490Z,17.64
2022-10-01T21:14:40.607Z,17.61
2022-10-01T21:17:39.492Z,17.56
2022-10-01T21:20:24.483Z,17.51
2022-10-01T21:23:28.419Z,17.46
2022-10-01T21:25:57.810Z,17.43
2022-10-01T21:28:54.610Z,17.40
2022-10-01T21:31:24.657Z,17.40
2022-10-01T21:34:41.361Z,17.35
2022-10-01T21:37:16.372Z,17.36
2022-10-01T21:39:56.895Z,17.35
2022-10-01T21:42:35.489Z,17.34
2022-10-01T21:45:20.670Z,17.32
2022-10-01T21:47:49.881Z,17.31
2022-10-01T21:50:22.101Z,17.32
2022-10-01T21:53:28.059Z,17.31
2022-10-01T21:56:20.446Z,17.30
2022-10-01T21:59:06.705Z,17.31
2022-10-01T22:01:44.079Z,17.30
2022-10-01T22:04:40.174Z,17.29
2022-10-01T22:07:28.113Z,17.29
2022-10-01T22:10:13.514Z,17.29
2022-10-01T22:12:45.473Z,17.30
2022-10-01T22:15:23.651Z,17.29
2022-10-01T22:17:53.638Z,17.30
2022-10-01T22:20:24.128Z,17.31
2022-10-01T22:22:56.491Z,17.30
2022-10-01T22:25:23.193Z,17.30
2022-10-01T22:28:05.091Z,17.28
2022-10-01T22:30:36.733Z,17.29
2022-10-01T22:33:14.580Z,17.29
2022-10-01T22:35:48.901Z,17.30
2022-10-01T22:38:21.310Z,17.30
2022-10-01T22:41:01.528Z,17.30
2022-10-01T22:43:28.350Z,17.31
2022-10-01T22:46:30.010Z,17.29
2022-10-01T22:49:03.451Z,17.27
2022-10-01T22:51:37.645Z,17.24
2022-10-01T22:54:22.830Z,17.18
2022-10-01T22:57:07.400Z,17.15
2022-10-01T22:59:49.215Z,17.13
2022-10-01T23:02:29.141Z,17.12
2022-10-01T23:05:14.549Z,17.11
2022-10-01T23:07:51.941Z,17.08
2022-10-01T23:10:29.486Z,17.08
2022-10-01T23:13:19.326Z,17.06
2022-10-01T23:15:52.596Z,17.06
2022-10-01T23:18:36.624Z,17.04
2022-10-01T23:21:35.083Z,17.03
2022-10-01T23:24:11.951Z,17.07
2022-10-01T23:26:44.194Z,17.09
2022-10-01T23:29:28.932Z,17.10
2022-10-01T23:32:17.161Z,17.10
2022-10-01T23:35:28.323Z,17.11
2022-10-01T23:38:18.474Z,17.12
2022-10-01T23:40:48.142Z,17.13
2022-10-01T23:43:35.482Z,17.13
2022-10-01T23:46:19.295Z,17.13
2022-10-01T23:48:56.090Z,17.16
2022-10-01T23:51:34.308Z,17.19
2022-10-01T23:54:15.558Z,17.20
2022-10-01T23:57:07.256Z,17.20
2022-10-01T23:59:48.758Z,17.20
